Kodiak, AK

8:50 PM AKDT on September 21, 2014 (GMT -0800)
Bob Plyler on Selief Lane | Change Station
CLOSE
Current Station
Personal Weather Station
Location: Kodiak, AK
Elevation: 115 ft
Nearby Weather Stations

Elev 115 ft 57.80 °N, 152.39 °W | Updated 9 seconds ago

Scattered Clouds
Scattered Clouds
49.6 °F
Feels Like 50 °F
N
0.0
Wind Variable Wind from East
Gusts 0.0 mph

Today
High -- | Low -- °F
--% Chance of Precip.
Yesterday
High -- | Low -- °F
Precip. -- in
7:52 AM 8:10 PM
Waning Crescent, 4% visible
Pressure 29.42 in
Visibility 10.0 miles
Clouds Scattered Clouds 5000 ft
Windchill 50 °F
Dew Point 32 °F
Humidity 50%
Rainfall 0.00 in
Snow Depth 1 in , 1 in , 0 in
UV 0 out of 12
Pollen Not available.
Air Quality Not available.
Flu Activity Not available.
METAR PADQ 220353Z 29004KT 10SM SCT050 10/06 A2942

More Conditions Fewer Conditions

Pressure 29.42 in
Visibility 10.0 miles
Clouds Scattered Clouds 5000 ft
Windchill 50 °F
Dew Point 32 °F
Humidity 50%
Rainfall 0.00 in
Snow Depth 1 in , 1 in , 0 in
UV 0 out of 12
Pollen Not available.
Air Quality Not available.
Flu Activity Not available.
METAR PADQ 220353Z 29004KT 10SM SCT050 10/06 A2942

More Conditions Fewer Conditions

10-Day Weather Forecast

Almanac

Astronomy

Sep. 21, 2014 Rise Set
Actual Time 7:52 AM AKDT 8:10 PM AKDT
Civil Twilight 7:13 AM AKDT 8:49 PM AKDT
Nautical Twilight 6:26 AM AKDT 9:36 PM AKDT
Astronomical Twilight 5:36 AM AKDT 10:26 PM AKDT
Moon 5:13 AM AKDT (9/21) 7:08 PM AKDT (9/21)
Length of Visible Light 13h 36m
Length of Day
12h 18m
Tomorrow will be 4m 57s shorter.
Waning Crescent, 4% of the Moon is Illuminated
Sep 22
Waning Crescent
Sep 24
New
Oct 1
First Quarter
Oct 8
Full
Oct 15
Last Quarter

Yesterday's Extremes

State Highs State Lows

Community

WunderPhotos

Upload Photos

1,755,391 photos uploaded!

Nearby

Snow Depth

Station Depth Elevation
Upper Chena 1 in 2850 ft
Long Lake 1 in 820 ft
Grouse Creek Divide 0 in 700 ft
Gobblers Knob 0 in 2030 ft
Port Graham 0 in 300 ft

Earthquake Activity

City Distance Mag. Time & Date
No recent earthquake activity has been reported nearby.
Minimum magnitude displayed is 2.5.

Coastal Water Temperatures

Place Temperature
No Stations Reporting

Nearby Weather Stations